Time;durP1;ratioP1;P1;durP2;ratioP2;P2;SDS_P1;SDS_P2;PMS_P1;PMS_P2;Temp;Humidity;BMP_temperature;BMP_pressure;BME280_temperature;BME280_humidity;BME280_pressure;Samples;Min_cycle;Max_cycle;Signal;HPM_P1;HPM_P2
2022/03/31 00:02:27;;;;;;;22.80;15.10;;;;;;;2.87;62.84;99017.23;130469;1268;98062;-75
2022/03/31 00:05:30;;;;;;;21.10;14.40;;;;;;;2.80;63.72;99015.92;130451;1267;97982;-77
2022/03/31 00:08:33;;;;;;;23.00;14.60;;;;;;;2.76;62.92;99018.50;130466;1268;99184;-75
2022/03/31 00:11:36;;;;;;;33.60;20.70;;;;;;;2.73;63.25;99016.95;130441;1267;97982;-80
2022/03/31 00:14:38;;;;;;;21.00;13.50;;;;;;;2.79;63.05;99018.98;130450;1266;99178;-80
2022/03/31 00:17:41;;;;;;;35.40;22.60;;;;;;;2.87;62.96;99015.05;130681;1268;98331;-77
2022/03/31 00:20:44;;;;;;;20.60;13.20;;;;;;;2.89;62.87;99012.81;130591;1268;98106;-77
2022/03/31 00:23:47;;;;;;;23.10;14.30;;;;;;;2.89;63.54;99007.57;130410;1266;231380;-76
2022/03/31 00:26:49;;;;;;;29.40;19.60;;;;;;;2.86;63.03;99005.14;130603;1268;108728;-76
2022/03/31 00:29:52;;;;;;;22.60;14.90;;;;;;;2.91;62.76;99001.73;130531;1266;98465;-76
2022/03/31 00:32:55;;;;;;;17.80;12.70;;;;;;;2.92;63.28;98998.70;130560;1268;99178;-78
2022/03/31 00:35:58;;;;;;;19.60;12.70;;;;;;;2.89;63.03;98998.55;130580;1266;108671;-77
2022/03/31 00:42:22;;;;;;;22.90;15.40;;;;;;;2.81;63.14;98991.69;130531;1268;108593;-73
2022/03/31 00:45:27;;;;;;;20.70;14.30;;;;;;;2.79;62.96;98984.51;130474;1268;97971;-74
2022/03/31 00:48:29;;;;;;;17.90;12.80;;;;;;;2.80;63.39;98986.41;130479;1268;108652;-73
2022/03/31 00:51:32;;;;;;;18.60;12.60;;;;;;;2.71;63.73;98984.86;130627;1266;98042;-74
2022/03/31 00:54:36;;;;;;;17.30;12.50;;;;;;;2.57;64.18;98983.27;130590;1268;98163;-72
2022/03/31 00:57:41;;;;;;;21.20;14.50;;;;;;;2.46;63.91;98980.83;130531;1268;108471;-73
2022/03/31 01:00:44;;;;;;;26.80;16.30;;;;;;;2.46;64.14;98980.92;130466;1268;108719;-73
2022/03/31 01:03:47;;;;;;;17.20;11.10;;;;;;;2.47;64.30;98978.70;130404;1266;98481;-75
2022/03/31 01:06:50;;;;;;;20.60;13.90;;;;;;;2.42;64.83;98979.85;130519;1266;99236;-76
2022/03/31 01:09:53;;;;;;;24.20;16.20;;;;;;;2.37;65.30;98977.11;130538;1268;98032;-76
2022/03/31 01:12:55;;;;;;;21.60;15.60;;;;;;;2.40;64.69;98979.82;130501;1268;98077;-75
2022/03/31 01:15:58;;;;;;;19.60;14.00;;;;;;;2.39;64.93;98979.39;130546;1266;98059;-75
2022/03/31 01:19:04;;;;;;;19.50;12.50;;;;;;;2.32;65.14;98981.22;130588;1268;99196;-75
2022/03/31 01:22:07;;;;;;;26.40;16.30;;;;;;;2.20;65.48;98979.29;130554;1268;107762;-75
2022/03/31 01:25:11;;;;;;;20.60;14.30;;;;;;;2.18;64.74;98977.34;130539;1268;98394;-75
2022/03/31 01:28:13;;;;;;;22.10;14.80;;;;;;;2.14;65.64;98975.38;130583;1268;108735;-74
2022/03/31 01:31:16;;;;;;;23.50;13.70;;;;;;;2.08;64.95;98976.73;130599;1268;99163;-76
2022/03/31 01:34:19;;;;;;;19.40;13.10;;;;;;;2.12;64.84;98973.10;130503;1268;98407;-75
2022/03/31 01:37:22;;;;;;;14.50;10.30;;;;;;;2.15;65.10;98971.98;130517;1268;97961;-73
2022/03/31 01:40:24;;;;;;;19.20;12.50;;;;;;;2.16;64.94;98973.84;130577;1267;98747;-72
2022/03/31 01:43:27;;;;;;;14.80;10.70;;;;;;;2.21;64.75;98976.34;130529;1268;98046;-72
2022/03/31 01:46:30;;;;;;;17.50;10.50;;;;;;;2.26;65.00;98975.02;130475;1268;98872;-74
2022/03/31 01:49:33;;;;;;;17.50;10.10;;;;;;;2.27;64.75;98976.88;130480;1268;98051;-73
2022/03/31 01:52:36;;;;;;;16.20;10.30;;;;;;;2.25;65.17;98980.80;130469;1266;98798;-73
2022/03/31 01:55:40;;;;;;;17.30;10.80;;;;;;;2.14;65.21;98978.67;130538;1267;98763;-76
2022/03/31 01:58:43;;;;;;;15.80;10.80;;;;;;;2.13;64.92;98983.90;130509;1268;98484;-74
2022/03/31 02:01:47;;;;;;;16.10;10.30;;;;;;;2.12;64.82;98980.30;130624;1268;99143;-76
2022/03/31 02:04:50;;;;;;;19.30;11.00;;;;;;;2.09;65.48;98983.31;130593;1268;108689;-76
2022/03/31 02:07:55;;;;;;;19.90;11.00;;;;;;;2.06;65.05;98982.34;130600;1268;99171;-75
2022/03/31 02:10:58;;;;;;;15.20;9.50;;;;;;;2.04;65.84;98985.73;130696;1267;106909;-77
2022/03/31 02:14:00;;;;;;;13.40;8.70;;;;;;;1.97;65.86;98987.16;130605;1267;98068;-74
2022/03/31 02:17:03;;;;;;;15.50;9.90;;;;;;;2.01;65.53;98988.04;130474;1268;97976;-76
2022/03/31 02:20:09;;;;;;;17.20;9.50;;;;;;;2.04;65.75;98990.44;130549;1266;97960;-76
2022/03/31 02:23:11;;;;;;;15.00;9.40;;;;;;;2.10;65.47;98992.05;130744;1268;108640;-76
2022/03/31 02:26:14;;;;;;;15.20;9.80;;;;;;;2.09;65.51;98989.50;130584;1268;98366;-77
2022/03/31 02:29:18;;;;;;;16.00;9.60;;;;;;;2.10;65.48;98987.96;130624;1268;98023;-76
2022/03/31 02:32:21;;;;;;;14.70;9.10;;;;;;;2.11;65.73;98987.77;130610;1268;108706;-75
2022/03/31 02:35:23;;;;;;;15.80;9.50;;;;;;;2.07;65.90;98986.50;130492;1266;99031;-73
2022/03/31 02:38:26;;;;;;;13.30;8.80;;;;;;;2.03;65.64;98984.54;130439;1268;98011;-72
2022/03/31 02:41:29;;;;;;;12.90;8.70;;;;;;;2.04;65.69;98985.70;130432;1268;98753;-72
2022/03/31 02:44:31;;;;;;;12.60;8.60;;;;;;;1.99;66.24;98983.66;130422;1268;99143;-74
2022/03/31 02:47:34;;;;;;;18.30;9.50;;;;;;;1.92;66.54;98983.17;130451;1268;97926;-74
2022/03/31 02:50:37;;;;;;;15.40;8.80;;;;;;;1.78;66.66;98980.89;130487;1268;98001;-73
2022/03/31 02:57:01;;;;;;;13.10;8.10;;;;;;;1.86;66.32;98981.55;130548;1268;108742;-73
2022/03/31 03:00:05;;;;;;;11.80;7.80;;;;;;;1.92;66.22;98981.13;130601;1266;99057;-72
2022/03/31 03:03:10;;;;;;;13.30;8.30;;;;;;;1.96;65.99;98987.74;130688;1266;108612;-75
2022/03/31 03:06:13;;;;;;;12.70;8.30;;;;;;;1.99;65.97;98990.16;130693;1266;108771;-73
2022/03/31 03:09:15;;;;;;;13.10;8.50;;;;;;;1.93;66.38;98986.11;130563;1267;108661;-72
2022/03/31 03:12:18;;;;;;;13.70;8.20;;;;;;;1.88;66.29;98985.99;130499;1268;98394;-72
2022/03/31 03:15:21;;;;;;;12.30;8.30;;;;;;;1.85;66.46;98989.60;130505;1267;99143;-74
2022/03/31 03:18:24;;;;;;;14.40;8.60;;;;;;;1.80;66.35;98989.30;130450;1267;98804;-73
2022/03/31 03:21:26;;;;;;;15.20;9.30;;;;;;;1.74;66.71;98985.00;130431;1266;98060;-73
2022/03/31 03:24:29;;;;;;;13.30;8.50;;;;;;;1.69;67.01;98982.30;130402;1268;99028;-73
2022/03/31 03:27:32;;;;;;;12.20;7.40;;;;;;;1.67;66.74;98985.45;130403;1266;99143;-73
2022/03/31 03:30:34;;;;;;;14.50;7.90;;;;;;;1.76;66.45;98988.38;130429;1267;99136;-73
2022/03/31 03:33:37;;;;;;;15.30;8.40;;;;;;;1.84;66.52;98987.55;130505;1267;97994;-73
2022/03/31 03:36:40;;;;;;;11.40;7.70;;;;;;;1.86;66.39;98987.54;130522;1267;97980;-71
2022/03/31 03:39:44;;;;;;;11.00;7.30;;;;;;;1.86;66.50;98995.80;130520;1266;99232;-73
2022/03/31 03:42:47;;;;;;;13.80;7.70;;;;;;;1.82;66.29;98990.86;130548;1268;99708;-72
2022/03/31 03:45:49;;;;;;;12.90;7.90;;;;;;;1.84;66.24;98991.76;130440;1268;97985;-74
2022/03/31 03:48:52;;;;;;;13.00;7.80;;;;;;;1.77;66.67;98995.17;130461;1267;98052;-73
2022/03/31 03:51:55;;;;;;;11.40;7.40;;;;;;;1.63;66.74;98992.15;130389;1266;99157;-73
2022/03/31 03:54:58;;;;;;;12.30;7.40;;;;;;;1.61;66.53;98993.34;130451;1267;98019;-74
2022/03/31 03:58:01;;;;;;;11.40;7.20;;;;;;;1.64;66.54;98995.18;130402;1268;99261;-73
2022/03/31 04:01:03;;;;;;;12.20;7.80;;;;;;;1.60;66.58;98990.22;130412;1268;97984;-73
2022/03/31 04:04:06;;;;;;;12.20;7.80;;;;;;;1.53;66.72;98990.60;130334;1267;99162;-72
2022/03/31 04:07:08;;;;;;;10.30;6.40;;;;;;;1.50;66.86;98994.59;130492;1268;98064;-73
2022/03/31 04:10:11;;;;;;;12.30;7.20;;;;;;;1.51;66.64;98997.98;130474;1268;97997;-72
2022/03/31 04:13:14;;;;;;;11.80;6.90;;;;;;;1.60;66.65;98997.79;130420;1268;97987;-73
2022/03/31 04:16:16;;;;;;;14.40;7.20;;;;;;;1.59;66.99;99000.35;130475;1266;98750;-73
2022/03/31 04:19:19;;;;;;;12.80;7.40;;;;;;;1.59;66.79;99005.78;130437;1266;98311;-73
2022/03/31 04:22:22;;;;;;;11.60;6.80;;;;;;;1.62;66.54;99002.94;130461;1268;99426;-74
2022/03/31 04:25:25;;;;;;;13.90;7.40;;;;;;;1.64;66.93;99003.96;130555;1266;98754;-74
2022/03/31 04:28:28;;;;;;;13.20;7.50;;;;;;;1.60;67.22;99006.59;130532;1266;97984;-73
2022/03/31 04:31:30;;;;;;;14.30;7.60;;;;;;;1.49;66.95;99005.30;130425;1266;98760;-74
2022/03/31 04:34:34;;;;;;;11.10;7.10;;;;;;;1.43;67.47;99001.42;130473;1267;98050;-73
2022/03/31 04:37:37;;;;;;;10.80;7.20;;;;;;;1.41;67.50;99004.59;130541;1266;98445;-77
2022/03/31 04:40:40;;;;;;;12.00;7.20;;;;;;;1.40;67.08;99005.88;130559;1268;99089;-72
2022/03/31 04:43:42;;;;;;;10.70;5.80;;;;;;;1.45;67.48;99011.59;130485;1268;98051;-75
2022/03/31 04:46:45;;;;;;;12.40;6.80;;;;;;;1.49;67.06;99016.03;130579;1268;99139;-73
2022/03/31 04:49:48;;;;;;;11.30;7.00;;;;;;;1.58;67.18;99024.95;130596;1267;97987;-73
2022/03/31 04:52:50;;;;;;;12.00;6.60;;;;;;;1.60;67.02;99024.50;130557;1268;98771;-73
2022/03/31 04:55:53;;;;;;;10.10;6.80;;;;;;;1.62;66.88;99028.69;130430;1266;112294;-72
2022/03/31 04:58:56;;;;;;;8.70;6.20;;;;;;;1.68;66.82;99027.31;130457;1267;99168;-73
2022/03/31 05:01:58;;;;;;;11.20;6.90;;;;;;;1.73;66.89;99031.55;130505;1267;99770;-72
2022/03/31 05:05:01;;;;;;;11.10;7.00;;;;;;;1.71;66.60;99037.90;130573;1267;98050;-72
2022/03/31 05:08:05;;;;;;;9.70;6.80;;;;;;;1.72;66.53;99039.55;130494;1267;99129;-73
2022/03/31 05:11:08;;;;;;;11.10;7.00;;;;;;;1.67;67.19;99043.11;130592;1268;98011;-71
2022/03/31 05:14:10;;;;;;;12.80;7.70;;;;;;;1.60;67.16;99041.13;130543;1268;98486;-73
2022/03/31 05:17:13;;;;;;;12.10;7.90;;;;;;;1.56;67.15;99045.77;130431;1268;99159;-73
2022/03/31 05:20:16;;;;;;;11.40;7.00;;;;;;;1.58;67.24;99047.21;130483;1268;97985;-72
2022/03/31 05:23:18;;;;;;;10.10;5.50;;;;;;;1.60;66.97;99055.77;130464;1268;97950;-73
2022/03/31 05:26:21;;;;;;;10.20;6.10;;;;;;;1.63;67.05;99059.04;130482;1267;99147;-72
2022/03/31 05:29:24;;;;;;;10.60;6.00;;;;;;;1.64;66.95;99063.69;130540;1267;97956;-73
2022/03/31 05:32:27;;;;;;;9.60;5.40;;;;;;;1.67;66.81;99065.61;130533;1268;99076;-72
2022/03/31 05:35:30;;;;;;;8.70;6.10;;;;;;;1.71;66.60;99059.27;130474;1267;108636;-74
2022/03/31 05:38:33;;;;;;;8.80;5.80;;;;;;;1.72;66.68;99060.04;130464;1267;108666;-73
2022/03/31 05:41:36;;;;;;;8.60;5.60;;;;;;;1.76;66.47;99062.58;130546;1268;98061;-72
2022/03/31 05:44:38;;;;;;;10.90;7.10;;;;;;;1.84;66.46;99063.60;130526;1268;98047;-73
2022/03/31 05:47:45;;;;;;;11.70;6.50;;;;;;;1.90;66.53;99061.58;130534;1266;98048;-72
2022/03/31 05:50:47;;;;;;;11.80;6.50;;;;;;;1.87;66.61;99060.09;130470;1268;108752;-73
2022/03/31 05:53:50;;;;;;;10.90;6.70;;;;;;;1.85;66.68;99065.69;130468;1268;98056;-72
2022/03/31 05:56:53;;;;;;;12.20;6.30;;;;;;;1.81;66.57;99065.66;130408;1267;98754;-73
2022/03/31 05:59:56;;;;;;;11.10;6.70;;;;;;;1.83;66.37;99067.06;130555;1268;98715;-72
2022/03/31 06:02:58;;;;;;;8.90;5.70;;;;;;;1.90;66.47;99075.42;130449;1268;99578;-72
2022/03/31 06:06:03;;;;;;;10.90;6.40;;;;;;;1.83;66.26;99073.59;130458;1268;108658;-73
2022/03/31 06:09:06;;;;;;;12.20;6.60;;;;;;;1.82;66.46;99076.27;130461;1267;99053;-73
2022/03/31 06:12:10;;;;;;;12.60;6.70;;;;;;;1.85;66.48;99080.61;130429;1267;99111;-73
2022/03/31 06:15:15;;;;;;;10.10;5.70;;;;;;;1.87;66.23;99076.56;130522;1268;107573;-72
2022/03/31 06:18:18;;;;;;;11.80;6.50;;;;;;;2.01;66.11;99075.76;130628;1266;106862;-71
2022/03/31 06:21:22;;;;;;;9.60;6.00;;;;;;;2.10;66.02;99076.45;130533;1268;107592;-74
2022/03/31 06:24:25;;;;;;;10.40;6.60;;;;;;;2.14;65.92;99071.34;130596;1268;108724;-74
2022/03/31 06:27:28;;;;;;;20.30;10.80;;;;;;;2.21;65.71;99076.02;130506;1268;108679;-73
2022/03/31 06:30:31;;;;;;;16.60;9.60;;;;;;;2.21;65.68;99075.49;130604;1267;99143;-74
2022/03/31 06:33:34;;;;;;;14.10;8.00;;;;;;;2.18;65.89;99072.41;130509;1268;98410;-74
2022/03/31 06:36:37;;;;;;;13.40;8.50;;;;;;;2.25;65.77;99072.88;130430;1266;108354;-73
2022/03/31 06:39:40;;;;;;;15.10;9.00;;;;;;;2.39;65.78;99070.84;130424;1267;98021;-74
2022/03/31 06:42:44;;;;;;;10.70;7.40;;;;;;;2.45;65.66;99075.03;130506;1268;98472;-73
2022/03/31 06:45:47;;;;;;;11.10;6.70;;;;;;;2.43;65.56;99075.80;130713;1267;108773;-73
2022/03/31 06:48:49;;;;;;;12.20;8.50;;;;;;;2.42;65.46;99080.56;130534;1268;99035;-73
2022/03/31 06:51:53;;;;;;;12.10;6.90;;;;;;;2.53;65.58;99087.35;130447;1268;98756;-72
2022/03/31 06:54:56;;;;;;;9.00;6.50;;;;;;;2.59;65.27;99089.33;130468;1268;108765;-72
2022/03/31 06:57:58;;;;;;;10.70;7.20;;;;;;;2.60;65.27;99094.83;130445;1268;99031;-73
2022/03/31 07:01:02;;;;;;;9.50;6.50;;;;;;;2.67;65.12;99097.63;130596;1268;98499;-73
2022/03/31 07:04:06;;;;;;;13.10;7.20;;;;;;;2.71;65.06;99095.29;130489;1268;98659;-72
2022/03/31 07:07:09;;;;;;;13.50;9.70;;;;;;;2.72;65.04;99098.02;130653;1268;108661;-73
2022/03/31 07:10:13;;;;;;;11.10;6.90;;;;;;;2.73;64.84;99098.29;130537;1267;99141;-72
2022/03/31 07:13:16;;;;;;;13.00;7.30;;;;;;;2.69;64.81;99103.57;130583;1267;108706;-72
2022/03/31 07:16:19;;;;;;;12.90;8.70;;;;;;;2.71;64.78;99100.23;130463;1268;108662;-73
2022/03/31 07:19:23;;;;;;;11.20;6.70;;;;;;;2.72;64.94;99100.84;130466;1266;97960;-73
2022/03/31 07:22:26;;;;;;;11.30;6.70;;;;;;;2.74;64.62;99096.77;130428;1268;108644;-73
2022/03/31 07:25:29;;;;;;;11.70;8.30;;;;;;;2.73;64.73;99096.91;130501;1268;97981;-73
2022/03/31 07:28:32;;;;;;;11.10;7.00;;;;;;;2.82;64.80;99097.20;130432;1268;108561;-74
2022/03/31 07:31:35;;;;;;;11.30;7.90;;;;;;;2.90;64.65;99092.16;130487;1266;98026;-73
2022/03/31 07:34:38;;;;;;;11.60;7.70;;;;;;;2.93;64.86;99097.40;130493;1268;97956;-72
2022/03/31 07:37:42;;;;;;;15.70;11.00;;;;;;;3.00;64.67;99094.55;130558;1268;108661;-72
2022/03/31 07:40:45;;;;;;;10.50;7.20;;;;;;;3.08;64.55;99098.98;130401;1268;98615;-73
2022/03/31 07:43:48;;;;;;;12.20;7.50;;;;;;;3.09;64.48;99104.19;130557;1267;108870;-73
2022/03/31 07:46:51;;;;;;;12.00;6.80;;;;;;;3.10;64.35;99104.93;130516;1268;98026;-72
2022/03/31 07:49:54;;;;;;;15.20;8.20;;;;;;;3.09;64.55;99111.67;130515;1267;108726;-72
2022/03/31 07:52:57;;;;;;;11.60;7.70;;;;;;;3.09;64.50;99116.29;130614;1268;97984;-72
2022/03/31 07:56:01;;;;;;;13.40;8.20;;;;;;;3.11;64.69;99119.74;130509;1267;108679;-73
2022/03/31 07:59:06;;;;;;;14.00;8.80;;;;;;;3.21;64.61;99121.03;130571;1267;107492;-72
2022/03/31 08:02:09;;;;;;;11.50;7.80;;;;;;;3.28;64.57;99116.16;130489;1267;108719;-73
2022/03/31 08:05:15;;;;;;;11.10;7.30;;;;;;;3.31;64.42;99109.59;130540;1268;98776;-73
2022/03/31 08:08:19;;;;;;;12.00;7.40;;;;;;;3.29;64.38;99106.45;130533;1268;108850;-73
2022/03/31 08:11:22;;;;;;;10.80;7.10;;;;;;;3.36;64.36;99115.88;130519;1268;108445;-72
2022/03/31 08:14:25;;;;;;;10.70;7.50;;;;;;;3.43;64.37;99122.47;130447;1266;97979;-75
2022/03/31 08:17:29;;;;;;;10.00;7.00;;;;;;;3.45;64.54;99133.49;130462;1268;108769;-73
2022/03/31 08:20:31;;;;;;;14.30;8.40;;;;;;;3.47;64.33;99135.62;130476;1268;108856;-72
2022/03/31 08:23:34;;;;;;;10.70;7.10;;;;;;;3.54;64.48;99122.49;130513;1267;98801;-72
2022/03/31 08:26:37;;;;;;;11.80;7.80;;;;;;;3.64;64.16;99120.27;130535;1266;98430;-72
2022/03/31 08:29:40;;;;;;;10.90;7.30;;;;;;;3.77;64.24;99124.02;130610;1268;99258;-72
2022/03/31 08:32:46;;;;;;;11.50;7.90;;;;;;;3.88;64.22;99123.17;130480;1267;98404;-72
2022/03/31 08:35:49;;;;;;;12.40;7.60;;;;;;;3.95;63.83;99122.63;130500;1268;108685;-73
2022/03/31 08:38:51;;;;;;;11.40;7.70;;;;;;;3.97;64.03;99124.72;130455;1267;97968;-73
2022/03/31 08:41:54;;;;;;;14.50;8.40;;;;;;;4.00;63.64;99118.96;130458;1267;99172;-73
2022/03/31 08:44:59;;;;;;;15.90;9.90;;;;;;;4.00;63.74;99115.08;130406;1268;97958;-74
2022/03/31 08:48:03;;;;;;;12.40;7.80;;;;;;;4.04;63.68;99112.10;130542;1266;108811;-74
2022/03/31 08:51:07;;;;;;;13.60;8.10;;;;;;;4.19;63.71;99110.59;130475;1268;108877;-73
2022/03/31 08:54:10;;;;;;;11.50;7.20;;;;;;;4.34;63.28;99110.58;130551;1268;108664;-72
2022/03/31 08:57:13;;;;;;;10.50;7.30;;;;;;;4.45;63.42;99107.66;130590;1268;98039;-72
2022/03/31 09:00:20;;;;;;;11.00;7.00;;;;;;;4.56;63.02;99099.63;130603;1267;98747;-72
2022/03/31 09:03:33;;;;;;;11.60;7.60;;;;;;;4.62;63.09;99097.44;130420;1266;108646;-73
2022/03/31 09:06:36;;;;;;;12.70;7.10;;;;;;;4.71;63.18;99097.64;130558;1267;108729;-72
2022/03/31 09:09:46;;;;;;;12.30;7.70;;;;;;;4.84;62.91;99097.13;130517;1267;98050;-73
2022/03/31 09:12:49;;;;;;;12.40;7.60;;;;;;;4.99;62.89;99098.39;130512;1268;108729;-73
2022/03/31 09:15:56;;;;;;;11.30;7.40;;;;;;;5.05;62.37;99101.69;130474;1268;97962;-73
2022/03/31 09:19:03;;;;;;;10.30;6.80;;;;;;;5.09;62.29;99101.08;130484;1266;108622;-74
2022/03/31 09:22:07;;;;;;;13.10;6.80;;;;;;;5.17;62.00;99100.88;130495;1267;108685;-74
2022/03/31 09:25:11;;;;;;;10.00;6.70;;;;;;;5.30;62.39;99104.20;130512;1268;108683;-73
2022/03/31 09:28:16;;;;;;;10.40;6.80;;;;;;;5.47;61.79;99101.88;130625;1268;108899;-73
2022/03/31 09:31:25;;;;;;;9.20;6.30;;;;;;;5.62;61.90;99104.83;130525;1267;108681;-72
2022/03/31 09:34:39;;;;;;;10.00;5.90;;;;;;;5.75;61.42;99107.83;130486;1268;108899;-72
2022/03/31 09:37:41;;;;;;;11.20;7.00;;;;;;;5.85;61.70;99115.59;130542;1268;108809;-73
2022/03/31 09:40:44;;;;;;;9.10;6.70;;;;;;;5.97;61.25;99110.45;130441;1267;97952;-72
2022/03/31 09:43:48;;;;;;;11.50;7.00;;;;;;;6.05;61.02;99104.91;130463;1268;99173;-73
2022/03/31 09:46:52;;;;;;;13.60;7.20;;;;;;;6.13;61.10;99107.27;130540;1267;108695;-73
2022/03/31 09:49:56;;;;;;;10.80;6.90;;;;;;;6.18;60.15;99107.79;130545;1268;108662;-75
2022/03/31 09:52:59;;;;;;;8.90;6.60;;;;;;;6.17;59.97;99103.92;130582;1268;108712;-74
2022/03/31 09:56:02;;;;;;;10.20;6.50;;;;;;;6.21;59.75;99100.27;130478;1268;97984;-74
2022/03/31 09:59:07;;;;;;;10.10;6.00;;;;;;;6.33;59.98;99108.29;130465;1267;108545;-73
2022/03/31 10:02:09;;;;;;;9.40;6.20;;;;;;;6.42;59.68;99104.61;130482;1268;107841;-74
2022/03/31 10:05:14;;;;;;;8.90;6.80;;;;;;;6.49;59.73;99102.41;130450;1268;99025;-73
2022/03/31 10:08:18;;;;;;;9.20;6.20;;;;;;;6.58;58.97;99098.86;130518;1268;108722;-74
2022/03/31 10:11:23;;;;;;;12.10;6.60;;;;;;;6.61;58.78;99089.34;130549;1268;108707;-74
2022/03/31 10:14:33;;;;;;;9.60;6.40;;;;;;;6.72;58.97;99089.19;130504;1266;108732;-73
2022/03/31 10:17:37;;;;;;;9.90;5.90;;;;;;;6.82;58.48;99098.95;130480;1267;108088;-74
2022/03/31 10:20:40;;;;;;;10.90;6.40;;;;;;;6.84;58.40;99097.81;130470;1268;108494;-73
2022/03/31 10:27:25;;;;;;;9.50;6.60;;;;;;;7.14;58.07;99103.44;130491;1267;108796;-73
2022/03/31 10:30:28;;;;;;;11.10;6.50;;;;;;;7.19;58.10;99101.66;130601;1268;108659;-72
2022/03/31 10:33:37;;;;;;;13.20;6.60;;;;;;;7.25;57.74;99097.70;130602;1268;108669;-72
2022/03/31 10:36:45;;;;;;;8.00;5.90;;;;;;;7.33;57.50;99089.95;130501;1268;108878;-73
2022/03/31 10:39:56;;;;;;;9.00;6.50;;;;;;;7.33;56.64;99091.70;130605;1268;108832;-73
2022/03/31 10:42:59;;;;;;;11.70;6.60;;;;;;;7.32;57.07;99090.06;130487;1268;108707;-74
2022/03/31 10:46:04;;;;;;;10.90;7.10;;;;;;;7.39;57.50;99091.38;130473;1267;108628;-74
2022/03/31 10:49:13;;;;;;;10.10;7.20;;;;;;;7.42;56.65;99094.29;130523;1268;108664;-74
2022/03/31 10:52:19;;;;;;;10.70;6.70;;;;;;;7.39;56.53;99088.40;130482;1266;108723;-73
2022/03/31 10:55:32;;;;;;;12.30;7.10;;;;;;;7.40;56.13;99088.83;130536;1267;108591;-74
2022/03/31 10:58:35;;;;;;;11.40;8.40;;;;;;;7.45;55.77;99081.27;130518;1268;108666;-73
2022/03/31 11:01:41;;;;;;;10.50;7.50;;;;;;;7.45;55.70;99080.89;130465;1268;98683;-73
2022/03/31 11:04:49;;;;;;;9.90;7.20;;;;;;;7.51;55.16;99071.91;130393;1268;108904;-73
2022/03/31 11:08:02;;;;;;;9.70;5.70;;;;;;;7.59;55.15;99074.26;130550;1266;108588;-72
2022/03/31 11:11:04;;;;;;;14.60;8.60;;;;;;;7.66;55.13;99074.43;130427;1268;108909;-73
2022/03/31 11:14:10;;;;;;;9.80;6.90;;;;;;;7.77;55.27;99084.20;130539;1268;99162;-73
2022/03/31 11:17:18;;;;;;;10.50;7.30;;;;;;;7.93;55.14;99084.35;130575;1268;108658;-73
2022/03/31 11:20:24;;;;;;;11.00;6.90;;;;;;;7.94;54.39;99074.13;130459;1267;107427;-74
2022/03/31 11:23:30;;;;;;;11.00;6.40;;;;;;;7.92;53.29;99069.40;130455;1268;109155;-74
2022/03/31 11:26:34;;;;;;;9.20;5.50;;;;;;;7.80;52.60;99075.52;130454;1268;107847;-74
2022/03/31 11:29:37;;;;;;;8.10;5.60;;;;;;;7.74;53.96;99068.27;130560;1268;108927;-74
2022/03/31 11:32:41;;;;;;;8.80;5.90;;;;;;;7.87;54.06;99069.38;130446;1268;97985;-74
2022/03/31 11:35:51;;;;;;;9.10;5.90;;;;;;;8.00;54.26;99072.38;130465;1268;108568;-74
2022/03/31 11:38:58;;;;;;;9.20;6.40;;;;;;;8.00;53.33;99069.35;130445;1268;108703;-74
2022/03/31 11:42:01;;;;;;;9.40;6.00;;;;;;;7.99;53.63;99067.52;130550;1268;107743;-74
2022/03/31 11:45:06;;;;;;;9.40;6.20;;;;;;;7.96;53.08;99069.48;130458;1268;108599;-74
2022/03/31 11:48:11;;;;;;;8.50;6.00;;;;;;;7.93;52.76;99068.16;130512;1268;108669;-74
2022/03/31 11:51:15;;;;;;;9.70;6.20;;;;;;;7.89;52.61;99060.52;130604;1268;108694;-75
2022/03/31 11:54:20;;;;;;;9.60;5.70;;;;;;;7.93;53.13;99062.31;130607;1268;108725;-74
2022/03/31 11:57:23;;;;;;;9.50;6.30;;;;;;;7.89;51.64;99061.75;130648;1268;108672;-74
2022/03/31 12:00:27;;;;;;;8.90;5.70;;;;;;;7.84;52.41;99056.73;130598;1268;99143;-74
2022/03/31 12:03:38;;;;;;;9.90;6.60;;;;;;;7.95;53.05;99054.83;130667;1268;107751;-72
2022/03/31 12:06:42;;;;;;;13.90;6.80;;;;;;;8.08;52.42;99047.97;130565;1268;108101;-74
2022/03/31 12:09:46;;;;;;;12.90;8.80;;;;;;;8.14;51.76;99050.68;130592;1268;108686;-73
2022/03/31 12:12:50;;;;;;;10.30;6.20;;;;;;;8.18;52.01;99049.52;130543;1267;106880;-75
2022/03/31 12:16:03;;;;;;;8.20;6.30;;;;;;;8.18;51.33;99043.70;130569;1265;108856;-74
2022/03/31 12:19:06;;;;;;;11.20;7.60;;;;;;;8.16;51.44;99044.94;130623;1266;109094;-74
2022/03/31 12:22:10;;;;;;;10.80;7.30;;;;;;;8.17;51.49;99041.71;130364;1267;323337;-73
2022/03/31 12:25:13;;;;;;;9.70;6.60;;;;;;;8.25;51.52;99034.64;130670;1268;109820;-73
2022/03/31 12:28:20;;;;;;;13.20;9.00;;;;;;;8.38;51.69;99031.80;130627;1268;108033;-73
2022/03/31 12:31:26;;;;;;;18.10;12.70;;;;;;;8.48;50.80;99033.16;130743;1268;107694;-73
2022/03/31 12:34:30;;;;;;;11.60;7.10;;;;;;;8.46;50.66;99033.73;130601;1268;108747;-72
2022/03/31 12:37:35;;;;;;;9.50;6.50;;;;;;;8.46;50.35;99030.58;130568;1267;108720;-73
2022/03/31 12:40:43;;;;;;;12.70;5.80;;;;;;;8.43;50.14;99023.96;130627;1268;108645;-74
2022/03/31 12:43:57;;;;;;;9.10;5.40;;;;;;;8.40;49.35;99033.88;130533;1268;108665;-74
2022/03/31 12:47:01;;;;;;;10.40;5.90;;;;;;;8.29;49.43;99035.76;130541;1268;107544;-73
2022/03/31 12:50:15;;;;;;;11.20;6.10;;;;;;;8.24;48.93;99032.71;130607;1267;108479;-73
2022/03/31 12:53:19;;;;;;;8.30;5.70;;;;;;;8.25;49.45;99027.52;130570;1266;108697;-74
2022/03/31 12:56:26;;;;;;;11.20;6.00;;;;;;;8.29;49.67;99024.43;130511;1268;108580;-74
2022/03/31 12:59:31;;;;;;;10.90;6.80;;;;;;;8.32;49.80;99019.48;130520;1268;108747;-74
2022/03/31 13:02:35;;;;;;;7.80;5.30;;;;;;;8.43;49.74;99023.14;130448;1268;109005;-74
2022/03/31 13:05:38;;;;;;;11.10;5.10;;;;;;;8.49;49.28;99023.19;130488;1268;108661;-74
2022/03/31 13:08:40;;;;;;;10.20;5.30;;;;;;;8.56;48.96;99028.59;130445;1268;97981;-73
2022/03/31 13:11:43;;;;;;;9.40;6.20;;;;;;;8.60;48.80;99027.72;130566;1268;99028;-74
2022/03/31 13:14:46;;;;;;;10.00;6.40;;;;;;;8.65;48.60;99020.36;130635;1265;97956;-73
2022/03/31 13:17:49;;;;;;;9.00;5.80;;;;;;;8.68;48.64;99019.41;130632;1267;106503;-73
2022/03/31 13:20:52;;;;;;;8.60;5.30;;;;;;;8.68;48.34;99024.95;130580;1268;99143;-73
2022/03/31 13:23:55;;;;;;;9.50;5.40;;;;;;;8.70;48.46;99016.25;130596;1268;99119;-73
2022/03/31 13:26:58;;;;;;;11.50;6.30;;;;;;;8.71;47.61;99020.13;130498;1268;97972;-74
2022/03/31 13:30:03;;;;;;;7.30;5.30;;;;;;;8.68;47.44;99021.25;130480;1268;97961;-73
2022/03/31 13:33:06;;;;;;;9.90;6.10;;;;;;;8.62;47.39;99022.27;130512;1267;108737;-73
2022/03/31 13:36:09;;;;;;;9.70;6.00;;;;;;;8.61;47.37;99019.27;130458;1267;108752;-75
2022/03/31 13:39:15;;;;;;;7.60;5.10;;;;;;;8.57;46.47;99018.21;130463;1268;108427;-73
2022/03/31 13:42:18;;;;;;;9.10;5.40;;;;;;;8.50;45.69;99016.61;130502;1268;109089;-73
2022/03/31 13:45:21;;;;;;;9.00;5.50;;;;;;;8.44;46.32;99010.98;130604;1268;108723;-73
2022/03/31 13:48:24;;;;;;;6.90;5.00;;;;;;;8.41;46.63;99010.55;130501;1268;97971;-73
2022/03/31 13:51:27;;;;;;;7.20;5.00;;;;;;;8.36;45.75;99008.77;130593;1268;98526;-73
2022/03/31 13:54:31;;;;;;;7.20;5.20;;;;;;;8.25;45.41;99005.17;130478;1266;99159;-73
2022/03/31 14:01:14;;;;;;;9.20;5.30;;;;;;;8.29;46.46;98998.09;130473;1268;108711;-74
2022/03/31 14:04:17;;;;;;;11.00;5.90;;;;;;;8.27;45.53;98993.45;130484;1267;107800;-73
2022/03/31 14:07:20;;;;;;;10.80;6.40;;;;;;;8.23;44.67;98989.80;130641;1267;108985;-72
2022/03/31 14:10:23;;;;;;;9.50;5.30;;;;;;;8.14;44.78;98987.95;130541;1268;97959;-73
2022/03/31 14:13:25;;;;;;;12.30;6.40;;;;;;;8.10;45.30;98980.48;130704;1268;97950;-72
2022/03/31 14:16:29;;;;;;;10.50;5.60;;;;;;;8.13;45.54;98975.34;130637;1268;99163;-72
2022/03/31 14:19:35;;;;;;;8.30;4.90;;;;;;;8.18;45.34;98975.83;130708;1268;108761;-72
2022/03/31 14:22:38;;;;;;;11.80;6.90;;;;;;;8.18;45.07;98976.85;130575;1267;108699;-74
2022/03/31 14:25:41;;;;;;;17.10;10.20;;;;;;;8.13;44.77;98970.55;130503;1268;99194;-75